Skip to main content

View Diary: Hurricane Sandy Liveblog #1 (22 comments)

Comment Preferences

  •  3:15 PM ET weather at Atlantic City (2+ / 0-)
    Recommended by:
    Garrett, llywrch
    KACY 291915Z 36027G48KT 3/4SM +RA BR BKN012 OVC017 15/14 A2841 RMK AO2 PK WND 02048/1910
    Wind N at 31 MPH gusted to 55 MPH at 3:10
    Raining hard
    baro 28.41

    It wouldn't surprise me if we lose weather reporting from this station at some point.  During Katrina, I was monitoring the weather at KMSY and we could practically see the weather instruments blowing away as they lost one sensor after another.

    "They let 'em vote, smoke, and drive -- even put 'em in pants! So what do you get? A -- a Democrat for President!" ~ Faster, Pussycat! Kill! Kill!

    by craiger on Mon Oct 29, 2012 at 12:31:48 PM PDT

Subscribe or Donate to support Daily Kos.

Click here for the mobile view of the site